sensor_id;sensor_type;location;lat;lon;timestamp;P1;durP1;ratioP1;P2;durP2;ratioP2
31782;SDS011;18351;47.560;9.708;2023-04-24T00:01:39;2.45;;;1.00;;
31782;SDS011;18351;47.560;9.708;2023-04-24T00:04:05;1.40;;;1.00;;
31782;SDS011;18351;47.560;9.708;2023-04-24T00:06:31;1.70;;;1.00;;
31782;SDS011;18351;47.560;9.708;2023-04-24T00:09:02;3.35;;;1.70;;
31782;SDS011;18351;47.560;9.708;2023-04-24T00:11:28;1.35;;;0.90;;
31782;SDS011;18351;47.560;9.708;2023-04-24T00:13:55;1.55;;;0.88;;
31782;SDS011;18351;47.560;9.708;2023-04-24T00:16:22;2.97;;;0.98;;
31782;SDS011;18351;47.560;9.708;2023-04-24T00:18:48;1.02;;;0.93;;
31782;SDS011;18351;47.560;9.708;2023-04-24T00:21:14;0.77;;;0.77;;
31782;SDS011;18351;47.560;9.708;2023-04-24T00:23:42;2.15;;;1.08;;
31782;SDS011;18351;47.560;9.708;2023-04-24T00:26:08;0.82;;;0.82;;
31782;SDS011;18351;47.560;9.708;2023-04-24T00:28:34;2.25;;;1.10;;
31782;SDS011;18351;47.560;9.708;2023-04-24T00:31:00;1.10;;;0.95;;
31782;SDS011;18351;47.560;9.708;2023-04-24T00:33:25;0.98;;;0.98;;
31782;SDS011;18351;47.560;9.708;2023-04-24T00:35:51;1.20;;;1.10;;
31782;SDS011;18351;47.560;9.708;2023-04-24T00:38:16;1.40;;;1.30;;
31782;SDS011;18351;47.560;9.708;2023-04-24T00:40:42;1.75;;;1.00;;
31782;SDS011;18351;47.560;9.708;2023-04-24T00:43:07;3.10;;;1.10;;
31782;SDS011;18351;47.560;9.708;2023-04-24T00:45:33;1.52;;;1.10;;
31782;SDS011;18351;47.560;9.708;2023-04-24T00:47:59;1.10;;;1.02;;
31782;SDS011;18351;47.560;9.708;2023-04-24T00:50:26;1.88;;;1.10;;
31782;SDS011;18351;47.560;9.708;2023-04-24T00:52:52;1.15;;;1.00;;
31782;SDS011;18351;47.560;9.708;2023-04-24T00:55:17;3.83;;;1.27;;
31782;SDS011;18351;47.560;9.708;2023-04-24T00:57:44;2.72;;;1.30;;
31782;SDS011;18351;47.560;9.708;2023-04-24T01:00:10;1.15;;;1.02;;
31782;SDS011;18351;47.560;9.708;2023-04-24T01:02:37;1.38;;;1.23;;
31782;SDS011;18351;47.560;9.708;2023-04-24T01:05:10;4.00;;;1.48;;
31782;SDS011;18351;47.560;9.708;2023-04-24T01:07:40;1.00;;;0.88;;
31782;SDS011;18351;47.560;9.708;2023-04-24T01:10:09;0.80;;;0.80;;
31782;SDS011;18351;47.560;9.708;2023-04-24T01:12:35;1.20;;;0.90;;
31782;SDS011;18351;47.560;9.708;2023-04-24T01:15:01;1.65;;;1.00;;
31782;SDS011;18351;47.560;9.708;2023-04-24T01:17:28;2.65;;;1.00;;
31782;SDS011;18351;47.560;9.708;2023-04-24T01:19:54;0.90;;;0.90;;
31782;SDS011;18351;47.560;9.708;2023-04-24T01:22:21;3.80;;;1.17;;
31782;SDS011;18351;47.560;9.708;2023-04-24T01:24:47;0.90;;;0.90;;
31782;SDS011;18351;47.560;9.708;2023-04-24T01:27:13;1.65;;;1.10;;
31782;SDS011;18351;47.560;9.708;2023-04-24T01:29:39;5.63;;;1.20;;
31782;SDS011;18351;47.560;9.708;2023-04-24T01:32:05;1.75;;;1.02;;
31782;SDS011;18351;47.560;9.708;2023-04-24T01:34:31;1.15;;;0.90;;
31782;SDS011;18351;47.560;9.708;2023-04-24T01:36:57;2.72;;;0.73;;
31782;SDS011;18351;47.560;9.708;2023-04-24T01:39:23;0.80;;;0.80;;
31782;SDS011;18351;47.560;9.708;2023-04-24T01:41:50;0.85;;;0.80;;
31782;SDS011;18351;47.560;9.708;2023-04-24T01:44:16;1.65;;;0.90;;
31782;SDS011;18351;47.560;9.708;2023-04-24T01:46:42;1.02;;;0.70;;
31782;SDS011;18351;47.560;9.708;2023-04-24T01:49:08;1.20;;;0.80;;
31782;SDS011;18351;47.560;9.708;2023-04-24T01:51:34;2.40;;;0.85;;
31782;SDS011;18351;47.560;9.708;2023-04-24T01:53:59;0.82;;;0.82;;
31782;SDS011;18351;47.560;9.708;2023-04-24T01:56:25;1.15;;;0.85;;
31782;SDS011;18351;47.560;9.708;2023-04-24T01:58:53;1.17;;;0.85;;
31782;SDS011;18351;47.560;9.708;2023-04-24T02:01:19;0.80;;;0.80;;
31782;SDS011;18351;47.560;9.708;2023-04-24T02:03:45;1.10;;;0.77;;
31782;SDS011;18351;47.560;9.708;2023-04-24T02:06:11;1.80;;;1.08;;
31782;SDS011;18351;47.560;9.708;2023-04-24T02:08:37;3.10;;;0.88;;
31782;SDS011;18351;47.560;9.708;2023-04-24T02:11:02;1.25;;;0.90;;
31782;SDS011;18351;47.560;9.708;2023-04-24T02:13:28;1.85;;;0.90;;
31782;SDS011;18351;47.560;9.708;2023-04-24T02:15:54;1.25;;;0.95;;
31782;SDS011;18351;47.560;9.708;2023-04-24T02:18:19;3.28;;;1.00;;
31782;SDS011;18351;47.560;9.708;2023-04-24T02:20:45;3.75;;;1.20;;
31782;SDS011;18351;47.560;9.708;2023-04-24T02:23:11;1.38;;;0.80;;
31782;SDS011;18351;47.560;9.708;2023-04-24T02:25:38;3.50;;;1.20;;
31782;SDS011;18351;47.560;9.708;2023-04-24T02:28:03;2.33;;;0.80;;
31782;SDS011;18351;47.560;9.708;2023-04-24T02:30:29;1.23;;;1.00;;
31782;SDS011;18351;47.560;9.708;2023-04-24T02:32:55;0.70;;;0.70;;
31782;SDS011;18351;47.560;9.708;2023-04-24T02:35:21;1.08;;;0.90;;
31782;SDS011;18351;47.560;9.708;2023-04-24T02:37:46;1.83;;;1.00;;
31782;SDS011;18351;47.560;9.708;2023-04-24T02:40:12;0.95;;;0.85;;
31782;SDS011;18351;47.560;9.708;2023-04-24T02:42:37;1.27;;;0.88;;
31782;SDS011;18351;47.560;9.708;2023-04-24T02:45:03;5.82;;;0.98;;
31782;SDS011;18351;47.560;9.708;2023-04-24T02:47:30;2.20;;;0.80;;
31782;SDS011;18351;47.560;9.708;2023-04-24T02:49:55;2.50;;;0.82;;
31782;SDS011;18351;47.560;9.708;2023-04-24T02:52:21;0.90;;;0.90;;
31782;SDS011;18351;47.560;9.708;2023-04-24T02:54:46;1.77;;;0.80;;
31782;SDS011;18351;47.560;9.708;2023-04-24T02:57:12;0.70;;;0.70;;
31782;SDS011;18351;47.560;9.708;2023-04-24T02:59:37;0.93;;;0.90;;
31782;SDS011;18351;47.560;9.708;2023-04-24T03:02:03;1.38;;;0.73;;
31782;SDS011;18351;47.560;9.708;2023-04-24T03:04:28;4.32;;;1.08;;
31782;SDS011;18351;47.560;9.708;2023-04-24T03:06:54;0.90;;;0.90;;
31782;SDS011;18351;47.560;9.708;2023-04-24T03:09:23;2.60;;;1.13;;
31782;SDS011;18351;47.560;9.708;2023-04-24T03:11:48;1.67;;;0.80;;
31782;SDS011;18351;47.560;9.708;2023-04-24T03:14:14;1.17;;;0.80;;
31782;SDS011;18351;47.560;9.708;2023-04-24T03:16:40;4.03;;;0.80;;
31782;SDS011;18351;47.560;9.708;2023-04-24T03:19:06;0.80;;;0.80;;
31782;SDS011;18351;47.560;9.708;2023-04-24T03:21:32;2.00;;;0.85;;
31782;SDS011;18351;47.560;9.708;2023-04-24T03:23:58;1.75;;;1.00;;
31782;SDS011;18351;47.560;9.708;2023-04-24T03:26:23;1.10;;;0.75;;
31782;SDS011;18351;47.560;9.708;2023-04-24T03:28:49;0.80;;;0.80;;
31782;SDS011;18351;47.560;9.708;2023-04-24T03:31:15;1.30;;;0.80;;
31782;SDS011;18351;47.560;9.708;2023-04-24T03:33:41;1.00;;;0.90;;
31782;SDS011;18351;47.560;9.708;2023-04-24T03:36:07;0.90;;;0.80;;
31782;SDS011;18351;47.560;9.708;2023-04-24T03:38:32;1.05;;;0.80;;
31782;SDS011;18351;47.560;9.708;2023-04-24T03:40:58;0.63;;;0.63;;
31782;SDS011;18351;47.560;9.708;2023-04-24T03:43:24;1.05;;;0.70;;
31782;SDS011;18351;47.560;9.708;2023-04-24T03:45:49;0.60;;;0.60;;
31782;SDS011;18351;47.560;9.708;2023-04-24T03:48:15;2.45;;;0.70;;
31782;SDS011;18351;47.560;9.708;2023-04-24T03:50:41;1.15;;;0.80;;
31782;SDS011;18351;47.560;9.708;2023-04-24T03:53:06;1.80;;;0.80;;
31782;SDS011;18351;47.560;9.708;2023-04-24T03:55:32;0.82;;;0.80;;
31782;SDS011;18351;47.560;9.708;2023-04-24T03:57:57;0.70;;;0.70;;
31782;SDS011;18351;47.560;9.708;2023-04-24T04:00:23;1.27;;;0.80;;
31782;SDS011;18351;47.560;9.708;2023-04-24T04:02:49;2.00;;;1.00;;
31782;SDS011;18351;47.560;9.708;2023-04-24T04:05:15;1.85;;;1.00;;
31782;SDS011;18351;47.560;9.708;2023-04-24T04:07:40;1.85;;;1.00;;
31782;SDS011;18351;47.560;9.708;2023-04-24T04:10:06;3.58;;;1.13;;
31782;SDS011;18351;47.560;9.708;2023-04-24T04:12:32;0.80;;;0.80;;
31782;SDS011;18351;47.560;9.708;2023-04-24T04:14:58;7.32;;;1.23;;
31782;SDS011;18351;47.560;9.708;2023-04-24T04:17:23;1.42;;;1.00;;
31782;SDS011;18351;47.560;9.708;2023-04-24T04:19:49;12.48;;;1.20;;
31782;SDS011;18351;47.560;9.708;2023-04-24T04:22:15;1.95;;;1.30;;
31782;SDS011;18351;47.560;9.708;2023-04-24T04:24:41;1.48;;;0.82;;
31782;SDS011;18351;47.560;9.708;2023-04-24T04:27:06;1.25;;;0.80;;
31782;SDS011;18351;47.560;9.708;2023-04-24T04:29:33;1.05;;;0.80;;
31782;SDS011;18351;47.560;9.708;2023-04-24T04:31:59;1.52;;;0.88;;
31782;SDS011;18351;47.560;9.708;2023-04-24T04:34:25;3.10;;;2.58;;
31782;SDS011;18351;47.560;9.708;2023-04-24T04:36:50;3.20;;;2.05;;
31782;SDS011;18351;47.560;9.708;2023-04-24T04:39:16;9.88;;;8.88;;
31782;SDS011;18351;47.560;9.708;2023-04-24T04:41:43;6.20;;;5.05;;
31782;SDS011;18351;47.560;9.708;2023-04-24T04:44:09;21.48;;;14.32;;
31782;SDS011;18351;47.560;9.708;2023-04-24T04:46:34;2.35;;;1.88;;
31782;SDS011;18351;47.560;9.708;2023-04-24T04:49:02;1.45;;;1.20;;
31782;SDS011;18351;47.560;9.708;2023-04-24T04:51:27;1.58;;;1.00;;
31782;SDS011;18351;47.560;9.708;2023-04-24T04:53:53;3.08;;;1.30;;
31782;SDS011;18351;47.560;9.708;2023-04-24T04:56:19;1.02;;;0.93;;
31782;SDS011;18351;47.560;9.708;2023-04-24T04:58:44;1.10;;;1.00;;
31782;SDS011;18351;47.560;9.708;2023-04-24T05:01:10;2.85;;;1.10;;
31782;SDS011;18351;47.560;9.708;2023-04-24T05:03:35;1.35;;;1.05;;
31782;SDS011;18351;47.560;9.708;2023-04-24T05:06:01;2.13;;;1.05;;
31782;SDS011;18351;47.560;9.708;2023-04-24T05:08:27;1.20;;;1.08;;
31782;SDS011;18351;47.560;9.708;2023-04-24T05:10:53;1.20;;;1.10;;
31782;SDS011;18351;47.560;9.708;2023-04-24T05:13:20;1.20;;;0.90;;
31782;SDS011;18351;47.560;9.708;2023-04-24T05:15:45;2.30;;;1.30;;
31782;SDS011;18351;47.560;9.708;2023-04-24T05:18:11;4.07;;;1.20;;
31782;SDS011;18351;47.560;9.708;2023-04-24T05:20:37;0.93;;;0.90;;
31782;SDS011;18351;47.560;9.708;2023-04-24T05:23:02;1.83;;;1.00;;
31782;SDS011;18351;47.560;9.708;2023-04-24T05:25:28;1.30;;;1.20;;
31782;SDS011;18351;47.560;9.708;2023-04-24T05:27:54;1.15;;;0.90;;
31782;SDS011;18351;47.560;9.708;2023-04-24T05:30:19;3.38;;;1.48;;
31782;SDS011;18351;47.560;9.708;2023-04-24T05:32:45;1.63;;;1.10;;
31782;SDS011;18351;47.560;9.708;2023-04-24T05:35:11;2.13;;;1.20;;
31782;SDS011;18351;47.560;9.708;2023-04-24T05:37:36;17.55;;;1.90;;
31782;SDS011;18351;47.560;9.708;2023-04-24T05:40:02;0.90;;;0.90;;
31782;SDS011;18351;47.560;9.708;2023-04-24T05:42:30;3.67;;;1.60;;
31782;SDS011;18351;47.560;9.708;2023-04-24T05:44:56;2.50;;;1.60;;
31782;SDS011;18351;47.560;9.708;2023-04-24T05:47:21;2.13;;;1.30;;
31782;SDS011;18351;47.560;9.708;2023-04-24T05:49:47;2.22;;;1.23;;
31782;SDS011;18351;47.560;9.708;2023-04-24T05:52:13;2.80;;;1.33;;
31782;SDS011;18351;47.560;9.708;2023-04-24T05:54:39;2.67;;;1.20;;
31782;SDS011;18351;47.560;9.708;2023-04-24T05:57:04;1.48;;;1.27;;
31782;SDS011;18351;47.560;9.708;2023-04-24T05:59:33;1.38;;;1.27;;
31782;SDS011;18351;47.560;9.708;2023-04-24T06:02:03;5.50;;;1.33;;
31782;SDS011;18351;47.560;9.708;2023-04-24T06:04:29;1.48;;;1.15;;
31782;SDS011;18351;47.560;9.708;2023-04-24T06:06:54;1.25;;;1.15;;
31782;SDS011;18351;47.560;9.708;2023-04-24T06:09:23;1.42;;;1.10;;
31782;SDS011;18351;47.560;9.708;2023-04-24T06:11:49;1.67;;;0.98;;
31782;SDS011;18351;47.560;9.708;2023-04-24T06:14:17;1.25;;;1.10;;
31782;SDS011;18351;47.560;9.708;2023-04-24T06:16:43;1.00;;;0.90;;
31782;SDS011;18351;47.560;9.708;2023-04-24T06:19:09;0.77;;;0.77;;
31782;SDS011;18351;47.560;9.708;2023-04-24T06:21:34;2.63;;;1.08;;
31782;SDS011;18351;47.560;9.708;2023-04-24T06:24:00;1.50;;;0.80;;
31782;SDS011;18351;47.560;9.708;2023-04-24T06:26:25;1.13;;;0.80;;
31782;SDS011;18351;47.560;9.708;2023-04-24T06:28:51;3.10;;;0.80;;
31782;SDS011;18351;47.560;9.708;2023-04-24T06:31:18;1.70;;;0.73;;
31782;SDS011;18351;47.560;9.708;2023-04-24T06:33:45;1.23;;;0.80;;
31782;SDS011;18351;47.560;9.708;2023-04-24T06:36:10;0.95;;;0.77;;
31782;SDS011;18351;47.560;9.708;2023-04-24T06:38:37;0.60;;;0.60;;
31782;SDS011;18351;47.560;9.708;2023-04-24T06:41:02;3.60;;;0.90;;
31782;SDS011;18351;47.560;9.708;2023-04-24T06:43:29;1.23;;;0.70;;
31782;SDS011;18351;47.560;9.708;2023-04-24T06:45:56;1.38;;;0.75;;
31782;SDS011;18351;47.560;9.708;2023-04-24T06:48:23;0.77;;;0.77;;
31782;SDS011;18351;47.560;9.708;2023-04-24T06:50:49;1.60;;;0.80;;
31782;SDS011;18351;47.560;9.708;2023-04-24T06:53:14;1.23;;;1.00;;
31782;SDS011;18351;47.560;9.708;2023-04-24T06:55:40;1.70;;;0.88;;
31782;SDS011;18351;47.560;9.708;2023-04-24T06:58:06;4.28;;;1.00;;
31782;SDS011;18351;47.560;9.708;2023-04-24T07:00:31;2.08;;;1.10;;
31782;SDS011;18351;47.560;9.708;2023-04-24T07:02:57;2.30;;;1.10;;
31782;SDS011;18351;47.560;9.708;2023-04-24T07:05:23;2.75;;;1.25;;
31782;SDS011;18351;47.560;9.708;2023-04-24T07:07:48;2.05;;;1.00;;
31782;SDS011;18351;47.560;9.708;2023-04-24T07:10:15;1.75;;;1.40;;
31782;SDS011;18351;47.560;9.708;2023-04-24T07:12:41;1.55;;;1.30;;
31782;SDS011;18351;47.560;9.708;2023-04-24T07:15:07;2.10;;;1.50;;
31782;SDS011;18351;47.560;9.708;2023-04-24T07:17:33;1.63;;;1.52;;
31782;SDS011;18351;47.560;9.708;2023-04-24T07:19:59;2.35;;;1.60;;
31782;SDS011;18351;47.560;9.708;2023-04-24T07:22:25;3.10;;;1.67;;
31782;SDS011;18351;47.560;9.708;2023-04-24T07:24:51;5.18;;;2.60;;
31782;SDS011;18351;47.560;9.708;2023-04-24T07:27:16;2.05;;;1.60;;
31782;SDS011;18351;47.560;9.708;2023-04-24T07:29:42;3.15;;;1.77;;
31782;SDS011;18351;47.560;9.708;2023-04-24T07:32:08;3.30;;;2.00;;
31782;SDS011;18351;47.560;9.708;2023-04-24T07:34:34;4.13;;;1.95;;
31782;SDS011;18351;47.560;9.708;2023-04-24T07:37:00;2.92;;;2.35;;
31782;SDS011;18351;47.560;9.708;2023-04-24T07:39:25;2.42;;;1.75;;
31782;SDS011;18351;47.560;9.708;2023-04-24T07:41:51;4.18;;;2.30;;
31782;SDS011;18351;47.560;9.708;2023-04-24T07:44:17;3.15;;;2.20;;
31782;SDS011;18351;47.560;9.708;2023-04-24T07:46:42;3.65;;;2.03;;
31782;SDS011;18351;47.560;9.708;2023-04-24T07:49:08;2.42;;;1.88;;
31782;SDS011;18351;47.560;9.708;2023-04-24T07:51:33;2.13;;;1.65;;
31782;SDS011;18351;47.560;9.708;2023-04-24T07:54:03;2.22;;;1.83;;
31782;SDS011;18351;47.560;9.708;2023-04-24T07:56:30;3.55;;;1.92;;
31782;SDS011;18351;47.560;9.708;2023-04-24T07:58:56;4.32;;;1.80;;
31782;SDS011;18351;47.560;9.708;2023-04-24T08:01:21;3.30;;;1.90;;
31782;SDS011;18351;47.560;9.708;2023-04-24T08:03:47;2.17;;;1.60;;
31782;SDS011;18351;47.560;9.708;2023-04-24T08:06:13;2.28;;;1.58;;
31782;SDS011;18351;47.560;9.708;2023-04-24T08:08:38;2.30;;;1.67;;
31782;SDS011;18351;47.560;9.708;2023-04-24T08:11:04;2.78;;;1.83;;
31782;SDS011;18351;47.560;9.708;2023-04-24T08:13:29;1.63;;;1.52;;
31782;SDS011;18351;47.560;9.708;2023-04-24T08:15:56;1.70;;;1.50;;
31782;SDS011;18351;47.560;9.708;2023-04-24T08:18:21;1.67;;;1.55;;
31782;SDS011;18351;47.560;9.708;2023-04-24T08:20:47;6.65;;;1.92;;
31782;SDS011;18351;47.560;9.708;2023-04-24T08:23:13;1.40;;;1.23;;
31782;SDS011;18351;47.560;9.708;2023-04-24T08:25:38;1.75;;;1.00;;
31782;SDS011;18351;47.560;9.708;2023-04-24T08:28:05;1.33;;;1.00;;
31782;SDS011;18351;47.560;9.708;2023-04-24T08:30:31;2.10;;;1.10;;
31782;SDS011;18351;47.560;9.708;2023-04-24T08:32:57;1.10;;;1.00;;
31782;SDS011;18351;47.560;9.708;2023-04-24T08:35:23;0.93;;;0.88;;
31782;SDS011;18351;47.560;9.708;2023-04-24T08:37:48;2.22;;;1.05;;
31782;SDS011;18351;47.560;9.708;2023-04-24T08:40:15;2.63;;;1.23;;
31782;SDS011;18351;47.560;9.708;2023-04-24T08:42:42;1.88;;;1.00;;
31782;SDS011;18351;47.560;9.708;2023-04-24T08:45:09;1.85;;;0.93;;
31782;SDS011;18351;47.560;9.708;2023-04-24T08:47:37;1.98;;;1.10;;
31782;SDS011;18351;47.560;9.708;2023-04-24T08:50:04;1.17;;;0.95;;
31782;SDS011;18351;47.560;9.708;2023-04-24T08:52:32;3.80;;;1.10;;
31782;SDS011;18351;47.560;9.708;2023-04-24T08:54:59;0.82;;;0.82;;
31782;SDS011;18351;47.560;9.708;2023-04-24T08:57:27;1.48;;;0.90;;
31782;SDS011;18351;47.560;9.708;2023-04-24T08:59:54;1.98;;;0.90;;
31782;SDS011;18351;47.560;9.708;2023-04-24T09:02:21;2.15;;;1.02;;
31782;SDS011;18351;47.560;9.708;2023-04-24T09:04:48;1.30;;;0.90;;
31782;SDS011;18351;47.560;9.708;2023-04-24T09:07:15;2.92;;;1.20;;
31782;SDS011;18351;47.560;9.708;2023-04-24T09:09:43;3.72;;;1.35;;
31782;SDS011;18351;47.560;9.708;2023-04-24T09:12:09;4.22;;;2.22;;
31782;SDS011;18351;47.560;9.708;2023-04-24T09:14:35;4.13;;;2.53;;
31782;SDS011;18351;47.560;9.708;2023-04-24T09:17:03;3.33;;;1.92;;
31782;SDS011;18351;47.560;9.708;2023-04-24T09:19:29;3.85;;;1.95;;
31782;SDS011;18351;47.560;9.708;2023-04-24T09:21:54;4.88;;;2.40;;
31782;SDS011;18351;47.560;9.708;2023-04-24T09:24:20;2.97;;;1.80;;
31782;SDS011;18351;47.560;9.708;2023-04-24T09:26:56;2.72;;;2.10;;
31782;SDS011;18351;47.560;9.708;2023-04-24T09:29:31;3.38;;;1.90;;
31782;SDS011;18351;47.560;9.708;2023-04-24T09:31:57;5.20;;;2.80;;
31782;SDS011;18351;47.560;9.708;2023-04-24T09:34:24;3.50;;;2.55;;
31782;SDS011;18351;47.560;9.708;2023-04-24T09:36:51;4.35;;;2.75;;
31782;SDS011;18351;47.560;9.708;2023-04-24T09:39:17;5.80;;;3.58;;
31782;SDS011;18351;47.560;9.708;2023-04-24T09:41:53;11.20;;;3.05;;
31782;SDS011;18351;47.560;9.708;2023-04-24T09:44:26;6.43;;;3.15;;
31782;SDS011;18351;47.560;9.708;2023-04-24T09:46:53;3.65;;;2.90;;
31782;SDS011;18351;47.560;9.708;2023-04-24T09:49:27;6.03;;;2.92;;
31782;SDS011;18351;47.560;9.708;2023-04-24T09:52:06;4.07;;;2.88;;
31782;SDS011;18351;47.560;9.708;2023-04-24T09:54:34;5.95;;;3.08;;
31782;SDS011;18351;47.560;9.708;2023-04-24T09:57:01;4.93;;;3.15;;
31782;SDS011;18351;47.560;9.708;2023-04-24T09:59:27;5.25;;;3.45;;
31782;SDS011;18351;47.560;9.708;2023-04-24T10:01:59;5.82;;;3.53;;
31782;SDS011;18351;47.560;9.708;2023-04-24T10:04:25;4.18;;;2.92;;
31782;SDS011;18351;47.560;9.708;2023-04-24T10:06:53;4.07;;;2.70;;
31782;SDS011;18351;47.560;9.708;2023-04-24T10:09:21;7.03;;;3.40;;
31782;SDS011;18351;47.560;9.708;2023-04-24T10:11:49;8.75;;;2.95;;
31782;SDS011;18351;47.560;9.708;2023-04-24T10:14:17;4.28;;;3.03;;
31782;SDS011;18351;47.560;9.708;2023-04-24T10:16:44;3.40;;;3.10;;
31782;SDS011;18351;47.560;9.708;2023-04-24T10:19:11;7.10;;;3.50;;
31782;SDS011;18351;47.560;9.708;2023-04-24T10:21:38;4.00;;;3.03;;
31782;SDS011;18351;47.560;9.708;2023-04-24T10:24:15;5.28;;;3.40;;
31782;SDS011;18351;47.560;9.708;2023-04-24T10:26:42;5.05;;;3.42;;
31782;SDS011;18351;47.560;9.708;2023-04-24T10:29:08;5.63;;;3.65;;
31782;SDS011;18351;47.560;9.708;2023-04-24T10:31:37;5.82;;;2.90;;
31782;SDS011;18351;47.560;9.708;2023-04-24T10:34:07;5.95;;;3.40;;
31782;SDS011;18351;47.560;9.708;2023-04-24T10:36:34;7.72;;;3.30;;
31782;SDS011;18351;47.560;9.708;2023-04-24T10:39:02;9.45;;;3.50;;
31782;SDS011;18351;47.560;9.708;2023-04-24T10:41:31;5.88;;;3.17;;
31782;SDS011;18351;47.560;9.708;2023-04-24T10:44:04;5.82;;;3.75;;
31782;SDS011;18351;47.560;9.708;2023-04-24T10:46:34;6.60;;;3.92;;
31782;SDS011;18351;47.560;9.708;2023-04-24T10:49:05;5.47;;;3.80;;
31782;SDS011;18351;47.560;9.708;2023-04-24T10:51:51;8.35;;;3.80;;
31782;SDS011;18351;47.560;9.708;2023-04-24T10:54:24;6.30;;;3.55;;
31782;SDS011;18351;47.560;9.708;2023-04-24T10:56:51;4.93;;;3.22;;
31782;SDS011;18351;47.560;9.708;2023-04-24T10:59:24;3.70;;;2.90;;
31782;SDS011;18351;47.560;9.708;2023-04-24T11:04:26;5.35;;;3.30;;
31782;SDS011;18351;47.560;9.708;2023-04-24T11:06:57;7.57;;;3.60;;
31782;SDS011;18351;47.560;9.708;2023-04-24T11:09:26;5.15;;;3.40;;
31782;SDS011;18351;47.560;9.708;2023-04-24T11:12:02;5.00;;;3.60;;
31782;SDS011;18351;47.560;9.708;2023-04-24T11:17:36;7.00;;;3.67;;
31782;SDS011;18351;47.560;9.708;2023-04-24T11:20:07;7.38;;;3.70;;
31782;SDS011;18351;47.560;9.708;2023-04-24T11:22:35;7.45;;;3.58;;
31782;SDS011;18351;47.560;9.708;2023-04-24T11:25:02;5.95;;;3.28;;
31782;SDS011;18351;47.560;9.708;2023-04-24T11:27:30;4.28;;;3.00;;
31782;SDS011;18351;47.560;9.708;2023-04-24T11:34:53;4.07;;;2.38;;
31782;SDS011;18351;47.560;9.708;2023-04-24T11:37:19;7.18;;;2.53;;
31782;SDS011;18351;47.560;9.708;2023-04-24T11:39:44;6.03;;;3.20;;
31782;SDS011;18351;47.560;9.708;2023-04-24T11:42:10;4.53;;;2.30;;
31782;SDS011;18351;47.560;9.708;2023-04-24T11:44:39;5.20;;;2.25;;
31782;SDS011;18351;47.560;9.708;2023-04-24T11:47:06;3.75;;;2.50;;
31782;SDS011;18351;47.560;9.708;2023-04-24T11:49:37;3.95;;;2.28;;
31782;SDS011;18351;47.560;9.708;2023-04-24T11:52:03;5.75;;;2.50;;
31782;SDS011;18351;47.560;9.708;2023-04-24T11:54:29;6.97;;;2.80;;
31782;SDS011;18351;47.560;9.708;2023-04-24T11:56:55;4.70;;;2.50;;
31782;SDS011;18351;47.560;9.708;2023-04-24T11:59:22;5.30;;;2.60;;
31782;SDS011;18351;47.560;9.708;2023-04-24T12:01:48;2.30;;;2.13;;
31782;SDS011;18351;47.560;9.708;2023-04-24T12:04:15;5.05;;;2.53;;
31782;SDS011;18351;47.560;9.708;2023-04-24T12:09:46;6.05;;;2.67;;
31782;SDS011;18351;47.560;9.708;2023-04-24T12:12:13;4.38;;;2.10;;
31782;SDS011;18351;47.560;9.708;2023-04-24T12:15:06;5.60;;;2.17;;
31782;SDS011;18351;47.560;9.708;2023-04-24T12:17:32;4.80;;;2.58;;
31782;SDS011;18351;47.560;9.708;2023-04-24T12:19:59;3.63;;;2.35;;
31782;SDS011;18351;47.560;9.708;2023-04-24T12:22:28;4.90;;;2.17;;
31782;SDS011;18351;47.560;9.708;2023-04-24T12:25:10;7.63;;;2.58;;
31782;SDS011;18351;47.560;9.708;2023-04-24T12:27:36;5.03;;;2.13;;
31782;SDS011;18351;47.560;9.708;2023-04-24T12:30:03;3.92;;;2.22;;
31782;SDS011;18351;47.560;9.708;2023-04-24T12:32:30;5.13;;;2.05;;
31782;SDS011;18351;47.560;9.708;2023-04-24T12:34:56;4.95;;;2.50;;
31782;SDS011;18351;47.560;9.708;2023-04-24T12:37:23;3.65;;;2.35;;
31782;SDS011;18351;47.560;9.708;2023-04-24T12:40:05;7.82;;;2.75;;
31782;SDS011;18351;47.560;9.708;2023-04-24T12:42:32;5.03;;;2.30;;
31782;SDS011;18351;47.560;9.708;2023-04-24T12:44:59;4.03;;;2.20;;
31782;SDS011;18351;47.560;9.708;2023-04-24T12:47:26;2.63;;;2.10;;
31782;SDS011;18351;47.560;9.708;2023-04-24T12:49:53;6.82;;;2.90;;
31782;SDS011;18351;47.560;9.708;2023-04-24T12:52:20;3.28;;;1.85;;
31782;SDS011;18351;47.560;9.708;2023-04-24T12:54:46;5.63;;;2.22;;
31782;SDS011;18351;47.560;9.708;2023-04-24T12:57:12;5.78;;;2.60;;
31782;SDS011;18351;47.560;9.708;2023-04-24T12:59:37;3.22;;;2.17;;
31782;SDS011;18351;47.560;9.708;2023-04-24T13:02:04;4.05;;;2.50;;
31782;SDS011;18351;47.560;9.708;2023-04-24T13:04:30;4.43;;;2.20;;
31782;SDS011;18351;47.560;9.708;2023-04-24T13:06:56;2.83;;;1.77;;
31782;SDS011;18351;47.560;9.708;2023-04-24T13:09:21;4.47;;;1.95;;
31782;SDS011;18351;47.560;9.708;2023-04-24T13:11:48;5.82;;;2.33;;
31782;SDS011;18351;47.560;9.708;2023-04-24T13:14:14;5.50;;;2.15;;
31782;SDS011;18351;47.560;9.708;2023-04-24T13:16:40;7.80;;;2.30;;
31782;SDS011;18351;47.560;9.708;2023-04-24T13:19:06;2.55;;;1.75;;
31782;SDS011;18351;47.560;9.708;2023-04-24T13:21:31;5.85;;;2.10;;
31782;SDS011;18351;47.560;9.708;2023-04-24T13:23:57;2.58;;;2.05;;
31782;SDS011;18351;47.560;9.708;2023-04-24T13:26:22;3.92;;;2.20;;
31782;SDS011;18351;47.560;9.708;2023-04-24T13:28:48;7.03;;;2.20;;
31782;SDS011;18351;47.560;9.708;2023-04-24T13:31:13;3.97;;;2.10;;
31782;SDS011;18351;47.560;9.708;2023-04-24T13:33:39;6.55;;;1.85;;
31782;SDS011;18351;47.560;9.708;2023-04-24T13:36:05;2.95;;;2.03;;
31782;SDS011;18351;47.560;9.708;2023-04-24T13:38:31;2.67;;;1.77;;
31782;SDS011;18351;47.560;9.708;2023-04-24T13:40:56;5.75;;;1.85;;
31782;SDS011;18351;47.560;9.708;2023-04-24T13:43:22;2.88;;;1.90;;
31782;SDS011;18351;47.560;9.708;2023-04-24T13:45:48;4.28;;;2.00;;
31782;SDS011;18351;47.560;9.708;2023-04-24T13:48:13;5.60;;;2.17;;
31782;SDS011;18351;47.560;9.708;2023-04-24T13:50:42;3.90;;;1.90;;
31782;SDS011;18351;47.560;9.708;2023-04-24T13:53:09;4.13;;;2.30;;
31782;SDS011;18351;47.560;9.708;2023-04-24T13:55:35;4.82;;;2.50;;
31782;SDS011;18351;47.560;9.708;2023-04-24T13:58:01;5.40;;;2.08;;
31782;SDS011;18351;47.560;9.708;2023-04-24T14:00:27;6.65;;;1.80;;
31782;SDS011;18351;47.560;9.708;2023-04-24T14:02:53;3.35;;;2.17;;
31782;SDS011;18351;47.560;9.708;2023-04-24T14:05:18;3.97;;;2.03;;
31782;SDS011;18351;47.560;9.708;2023-04-24T14:07:45;2.40;;;1.85;;
31782;SDS011;18351;47.560;9.708;2023-04-24T14:10:11;2.38;;;1.88;;
31782;SDS011;18351;47.560;9.708;2023-04-24T14:12:37;4.78;;;1.85;;
31782;SDS011;18351;47.560;9.708;2023-04-24T14:15:03;3.92;;;1.70;;
31782;SDS011;18351;47.560;9.708;2023-04-24T14:17:29;3.10;;;2.22;;
31782;SDS011;18351;47.560;9.708;2023-04-24T14:19:55;3.67;;;2.15;;
31782;SDS011;18351;47.560;9.708;2023-04-24T14:22:21;6.40;;;2.00;;
31782;SDS011;18351;47.560;9.708;2023-04-24T14:24:47;3.67;;;2.03;;
31782;SDS011;18351;47.560;9.708;2023-04-24T14:27:13;2.90;;;2.10;;
31782;SDS011;18351;47.560;9.708;2023-04-24T14:29:39;4.60;;;2.45;;
31782;SDS011;18351;47.560;9.708;2023-04-24T14:32:04;3.13;;;2.10;;
31782;SDS011;18351;47.560;9.708;2023-04-24T14:34:30;5.93;;;2.17;;
31782;SDS011;18351;47.560;9.708;2023-04-24T14:36:55;4.90;;;2.50;;
31782;SDS011;18351;47.560;9.708;2023-04-24T14:39:21;6.25;;;2.33;;
31782;SDS011;18351;47.560;9.708;2023-04-24T14:41:46;4.75;;;2.28;;
31782;SDS011;18351;47.560;9.708;2023-04-24T14:44:12;5.05;;;1.98;;
31782;SDS011;18351;47.560;9.708;2023-04-24T14:46:38;5.15;;;2.05;;
31782;SDS011;18351;47.560;9.708;2023-04-24T14:49:03;3.65;;;2.13;;
31782;SDS011;18351;47.560;9.708;2023-04-24T14:51:29;5.35;;;2.78;;
31782;SDS011;18351;47.560;9.708;2023-04-24T14:53:55;5.13;;;2.10;;
31782;SDS011;18351;47.560;9.708;2023-04-24T14:56:21;8.18;;;2.53;;
31782;SDS011;18351;47.560;9.708;2023-04-24T14:58:48;2.17;;;1.85;;